sensor_id;sensor_type;location;lat;lon;timestamp;pressure;altitude;pressure_sealevel;temperature
43802;BMP280;29429;51.074;13.764;2023-12-20T00:01:15;99581.31;;;8.25
43802;BMP280;29429;51.074;13.764;2023-12-20T00:03:42;99583.78;;;8.26
43802;BMP280;29429;51.074;13.764;2023-12-20T00:06:10;99574.94;;;8.19
43802;BMP280;29429;51.074;13.764;2023-12-20T00:08:37;99569.63;;;8.19
43802;BMP280;29429;51.074;13.764;2023-12-20T00:11:04;99578.81;;;8.17
43802;BMP280;29429;51.074;13.764;2023-12-20T00:13:31;99565.47;;;8.10
43802;BMP280;29429;51.074;13.764;2023-12-20T00:15:58;99568.78;;;8.12
43802;BMP280;29429;51.074;13.764;2023-12-20T00:18:25;99568.56;;;8.14
43802;BMP280;29429;51.074;13.764;2023-12-20T00:20:52;99561.22;;;8.16
43802;BMP280;29429;51.074;13.764;2023-12-20T00:23:19;99555.88;;;8.09
43802;BMP280;29429;51.074;13.764;2023-12-20T00:25:46;99557.84;;;8.01
43802;BMP280;29429;51.074;13.764;2023-12-20T00:28:14;99554.75;;;7.97
43802;BMP280;29429;51.074;13.764;2023-12-20T00:30:40;99554.34;;;7.93
43802;BMP280;29429;51.074;13.764;2023-12-20T00:33:07;99555.53;;;7.91
43802;BMP280;29429;51.074;13.764;2023-12-20T00:35:35;99557.31;;;7.84
43802;BMP280;29429;51.074;13.764;2023-12-20T00:38:02;99562.56;;;7.77
43802;BMP280;29429;51.074;13.764;2023-12-20T00:40:28;99557.66;;;7.74
43802;BMP280;29429;51.074;13.764;2023-12-20T00:42:55;99559.06;;;7.70
43802;BMP280;29429;51.074;13.764;2023-12-20T00:45:22;99561.25;;;7.67
43802;BMP280;29429;51.074;13.764;2023-12-20T00:47:49;99557.97;;;7.65
43802;BMP280;29429;51.074;13.764;2023-12-20T00:50:17;99555.50;;;7.63
43802;BMP280;29429;51.074;13.764;2023-12-20T00:52:44;99548.13;;;7.59
43802;BMP280;29429;51.074;13.764;2023-12-20T00:55:11;99540.53;;;7.56
43802;BMP280;29429;51.074;13.764;2023-12-20T00:57:38;99540.97;;;7.59
43802;BMP280;29429;51.074;13.764;2023-12-20T01:00:06;99539.31;;;7.58
43802;BMP280;29429;51.074;13.764;2023-12-20T01:02:36;99541.53;;;7.55
43802;BMP280;29429;51.074;13.764;2023-12-20T01:05:03;99532.94;;;7.53
43802;BMP280;29429;51.074;13.764;2023-12-20T01:07:30;99532.13;;;7.52
43802;BMP280;29429;51.074;13.764;2023-12-20T01:09:57;99529.28;;;7.54
43802;BMP280;29429;51.074;13.764;2023-12-20T01:12:24;99521.97;;;7.56
43802;BMP280;29429;51.074;13.764;2023-12-20T01:14:51;99519.06;;;7.51
43802;BMP280;29429;51.074;13.764;2023-12-20T01:17:18;99518.44;;;7.49
43802;BMP280;29429;51.074;13.764;2023-12-20T01:19:45;99519.06;;;7.51
43802;BMP280;29429;51.074;13.764;2023-12-20T01:22:11;99509.44;;;7.50
43802;BMP280;29429;51.074;13.764;2023-12-20T01:24:38;99505.59;;;7.52
43802;BMP280;29429;51.074;13.764;2023-12-20T01:27:05;99503.75;;;7.53
43802;BMP280;29429;51.074;13.764;2023-12-20T01:29:32;99496.19;;;7.50
43802;BMP280;29429;51.074;13.764;2023-12-20T01:31:59;99495.56;;;7.48
43802;BMP280;29429;51.074;13.764;2023-12-20T01:34:26;99498.59;;;7.45
43802;BMP280;29429;51.074;13.764;2023-12-20T01:36:53;99501.63;;;7.42
43802;BMP280;29429;51.074;13.764;2023-12-20T01:39:20;99497.34;;;7.41
43802;BMP280;29429;51.074;13.764;2023-12-20T01:41:55;99503.28;;;7.43
43802;BMP280;29429;51.074;13.764;2023-12-20T01:44:22;99495.94;;;7.45
43802;BMP280;29429;51.074;13.764;2023-12-20T01:46:49;99489.81;;;7.44
43802;BMP280;29429;51.074;13.764;2023-12-20T01:49:16;99494.94;;;7.46
43802;BMP280;29429;51.074;13.764;2023-12-20T01:51:44;99491.91;;;7.49
43802;BMP280;29429;51.074;13.764;2023-12-20T01:54:12;99491.47;;;7.45
43802;BMP280;29429;51.074;13.764;2023-12-20T01:56:40;99490.00;;;7.43
43802;BMP280;29429;51.074;13.764;2023-12-20T01:59:07;99489.56;;;7.39
43802;BMP280;29429;51.074;13.764;2023-12-20T02:01:35;99486.47;;;7.35
43802;BMP280;29429;51.074;13.764;2023-12-20T02:04:04;99495.69;;;7.40
43802;BMP280;29429;51.074;13.764;2023-12-20T02:06:33;99492.03;;;7.41
43802;BMP280;29429;51.074;13.764;2023-12-20T02:09:00;99489.56;;;7.39
43802;BMP280;29429;51.074;13.764;2023-12-20T02:11:27;99493.25;;;7.38
43802;BMP280;29429;51.074;13.764;2023-12-20T02:13:55;99480.53;;;7.33
43802;BMP280;29429;51.074;13.764;2023-12-20T02:16:22;99469.91;;;7.33
43802;BMP280;29429;51.074;13.764;2023-12-20T02:18:49;99472.78;;;7.32
43802;BMP280;29429;51.074;13.764;2023-12-20T02:21:17;99467.91;;;7.35
43802;BMP280;29429;51.074;13.764;2023-12-20T02:23:44;99466.66;;;7.31
43802;BMP280;29429;51.074;13.764;2023-12-20T02:26:12;99472.78;;;7.32
43802;BMP280;29429;51.074;13.764;2023-12-20T02:28:40;99471.56;;;7.34
43802;BMP280;29429;51.074;13.764;2023-12-20T02:31:07;99459.31;;;7.33
43802;BMP280;29429;51.074;13.764;2023-12-20T02:33:34;99468.72;;;7.36
43802;BMP280;29429;51.074;13.764;2023-12-20T02:36:01;99466.88;;;7.36
43802;BMP280;29429;51.074;13.764;2023-12-20T02:38:28;99468.53;;;7.38
43802;BMP280;29429;51.074;13.764;2023-12-20T02:40:55;99466.34;;;7.41
43802;BMP280;29429;51.074;13.764;2023-12-20T02:43:22;99461.81;;;7.42
43802;BMP280;29429;51.074;13.764;2023-12-20T02:45:49;99458.75;;;7.38
43802;BMP280;29429;51.074;13.764;2023-12-20T02:48:16;99456.94;;;7.39
43802;BMP280;29429;51.074;13.764;2023-12-20T02:50:43;99461.34;;;7.31
43802;BMP280;29429;51.074;13.764;2023-12-20T02:53:10;99458.94;;;7.36
43802;BMP280;29429;51.074;13.764;2023-12-20T02:55:37;99459.31;;;7.33
43802;BMP280;29429;51.074;13.764;2023-12-20T02:58:04;99453.38;;;7.31
43802;BMP280;29429;51.074;13.764;2023-12-20T03:00:31;99463.75;;;7.26
43802;BMP280;29429;51.074;13.764;2023-12-20T03:02:57;99457.44;;;7.27
43802;BMP280;29429;51.074;13.764;2023-12-20T03:05:26;99447.22;;;7.24
43802;BMP280;29429;51.074;13.764;2023-12-20T03:07:53;99458.19;;;7.21
43802;BMP280;29429;51.074;13.764;2023-12-20T03:10:20;99460.84;;;7.21
43802;BMP280;29429;51.074;13.764;2023-12-20T03:12:53;99451.66;;;7.17
43802;BMP280;29429;51.074;13.764;2023-12-20T03:15:20;99447.59;;;7.21
43802;BMP280;29429;51.074;13.764;2023-12-20T03:17:47;99453.09;;;7.20
43802;BMP280;29429;51.074;13.764;2023-12-20T03:20:14;99452.44;;;7.18
43802;BMP280;29429;51.074;13.764;2023-12-20T03:22:41;99450.63;;;7.18
43802;BMP280;29429;51.074;13.764;2023-12-20T03:25:08;99446.97;;;7.19
43802;BMP280;29429;51.074;13.764;2023-12-20T03:27:37;99443.69;;;7.17
43802;BMP280;29429;51.074;13.764;2023-12-20T03:30:08;99437.09;;;7.13
43802;BMP280;29429;51.074;13.764;2023-12-20T03:32:38;99428.53;;;7.11
43802;BMP280;29429;51.074;13.764;2023-12-20T03:35:05;99429.34;;;7.12
43802;BMP280;29429;51.074;13.764;2023-12-20T03:37:32;99428.16;;;7.14
43802;BMP280;29429;51.074;13.764;2023-12-20T03:40:00;99432.38;;;7.09
43802;BMP280;29429;51.074;13.764;2023-12-20T03:42:27;99421.34;;;7.05
43802;BMP280;29429;51.074;13.764;2023-12-20T03:44:54;99435.22;;;7.07
43802;BMP280;29429;51.074;13.764;2023-12-20T03:47:21;99426.06;;;7.10
43802;BMP280;29429;51.074;13.764;2023-12-20T03:49:48;99427.91;;;7.09
43802;BMP280;29429;51.074;13.764;2023-12-20T03:52:15;99432.19;;;7.10
43802;BMP280;29429;51.074;13.764;2023-12-20T03:54:42;99438.50;;;7.09
43802;BMP280;29429;51.074;13.764;2023-12-20T03:57:09;99426.88;;;7.10
43802;BMP280;29429;51.074;13.764;2023-12-20T03:59:37;99430.28;;;7.04
43802;BMP280;29429;51.074;13.764;2023-12-20T04:02:04;99424.19;;;7.04
43802;BMP280;29429;51.074;13.764;2023-12-20T04:04:31;99430.94;;;7.06
43802;BMP280;29429;51.074;13.764;2023-12-20T04:06:58;99430.94;;;7.06
43802;BMP280;29429;51.074;13.764;2023-12-20T04:09:25;99428.28;;;7.06
43802;BMP280;29429;51.074;13.764;2023-12-20T04:11:52;99433.00;;;7.11
43802;BMP280;29429;51.074;13.764;2023-12-20T04:14:19;99436.28;;;7.13
43802;BMP280;29429;51.074;13.764;2023-12-20T04:16:46;99435.09;;;7.15
43802;BMP280;29429;51.074;13.764;2023-12-20T04:19:13;99428.78;;;7.16
43802;BMP280;29429;51.074;13.764;2023-12-20T04:21:40;99438.38;;;7.17
43802;BMP280;29429;51.074;13.764;2023-12-20T04:24:08;99438.75;;;7.14
43802;BMP280;29429;51.074;13.764;2023-12-20T04:26:35;99439.13;;;7.11
43802;BMP280;29429;51.074;13.764;2023-12-20T04:29:02;99431.56;;;7.08
43802;BMP280;29429;51.074;13.764;2023-12-20T04:31:29;99434.00;;;7.10
43802;BMP280;29429;51.074;13.764;2023-12-20T04:33:56;99433.59;;;7.06
43802;BMP280;29429;51.074;13.764;2023-12-20T04:36:23;99437.47;;;7.10
43802;BMP280;29429;51.074;13.764;2023-12-20T04:38:49;99440.34;;;7.09
43802;BMP280;29429;51.074;13.764;2023-12-20T04:41:16;99428.91;;;7.08
43802;BMP280;29429;51.074;13.764;2023-12-20T04:43:45;99429.53;;;7.10
43802;BMP280;29429;51.074;13.764;2023-12-20T04:46:12;99429.53;;;7.10
43802;BMP280;29429;51.074;13.764;2023-12-20T04:48:39;99435.41;;;7.06
43802;BMP280;29429;51.074;13.764;2023-12-20T04:51:06;99436.41;;;7.05
43802;BMP280;29429;51.074;13.764;2023-12-20T04:53:33;99441.53;;;7.06
43802;BMP280;29429;51.074;13.764;2023-12-20T04:56:00;99441.53;;;7.06
43802;BMP280;29429;51.074;13.764;2023-12-20T04:58:28;99450.38;;;7.13
43802;BMP280;29429;51.074;13.764;2023-12-20T05:00:55;99441.41;;;7.14
43802;BMP280;29429;51.074;13.764;2023-12-20T05:03:22;99440.84;;;7.19
43802;BMP280;29429;51.074;13.764;2023-12-20T05:05:49;99442.28;;;7.21
43802;BMP280;29429;51.074;13.764;2023-12-20T05:08:16;99438.19;;;7.19
43802;BMP280;29429;51.074;13.764;2023-12-20T05:10:43;99438.38;;;7.17
43802;BMP280;29429;51.074;13.764;2023-12-20T05:13:10;99438.38;;;7.17
43802;BMP280;29429;51.074;13.764;2023-12-20T05:15:37;99438.22;;;7.25
43802;BMP280;29429;51.074;13.764;2023-12-20T05:18:04;99433.09;;;7.17
43802;BMP280;29429;51.074;13.764;2023-12-20T05:20:31;99442.03;;;7.16
43802;BMP280;29429;51.074;13.764;2023-12-20T05:22:58;99450.00;;;7.16
43802;BMP280;29429;51.074;13.764;2023-12-20T05:25:25;99447.09;;;7.11
43802;BMP280;29429;51.074;13.764;2023-12-20T05:27:52;99458.53;;;7.12
43802;BMP280;29429;51.074;13.764;2023-12-20T05:30:19;99460.97;;;7.13
43802;BMP280;29429;51.074;13.764;2023-12-20T05:32:46;99457.88;;;7.10
43802;BMP280;29429;51.074;13.764;2023-12-20T05:35:13;99463.16;;;7.10
43802;BMP280;29429;51.074;13.764;2023-12-20T05:37:41;99461.34;;;7.10
43802;BMP280;29429;51.074;13.764;2023-12-20T05:40:08;99461.59;;;7.15
43802;BMP280;29429;51.074;13.764;2023-12-20T05:42:39;99453.25;;;7.18
43802;BMP280;29429;51.074;13.764;2023-12-20T05:45:06;99465.53;;;7.19
43802;BMP280;29429;51.074;13.764;2023-12-20T05:47:33;99463.63;;;7.13
43802;BMP280;29429;51.074;13.764;2023-12-20T05:50:00;99472.56;;;7.12
43802;BMP280;29429;51.074;13.764;2023-12-20T05:52:27;99463.63;;;7.13
43802;BMP280;29429;51.074;13.764;2023-12-20T05:54:54;99468.44;;;7.03
43802;BMP280;29429;51.074;13.764;2023-12-20T05:57:22;99473.53;;;7.05
43802;BMP280;29429;51.074;13.764;2023-12-20T05:59:50;99473.91;;;7.02
43802;BMP280;29429;51.074;13.764;2023-12-20T06:02:17;99481.69;;;7.03
43802;BMP280;29429;51.074;13.764;2023-12-20T06:04:44;99483.50;;;7.03
43802;BMP280;29429;51.074;13.764;2023-12-20T06:07:12;99478.41;;;7.01
43802;BMP280;29429;51.074;13.764;2023-12-20T06:09:40;99492.47;;;7.02
43802;BMP280;29429;51.074;13.764;2023-12-20T06:12:07;99490.22;;;6.99
43802;BMP280;29429;51.074;13.764;2023-12-20T06:14:35;99487.56;;;6.99
43802;BMP280;29429;51.074;13.764;2023-12-20T06:17:02;99484.44;;;6.95
43802;BMP280;29429;51.074;13.764;2023-12-20T06:19:29;99483.16;;;6.91
43802;BMP280;29429;51.074;13.764;2023-12-20T06:21:56;99483.00;;;6.93
43802;BMP280;29429;51.074;13.764;2023-12-20T06:24:24;99483.44;;;6.96
43802;BMP280;29429;51.074;13.764;2023-12-20T06:26:54;99485.53;;;7.01
43802;BMP280;29429;51.074;13.764;2023-12-20T06:29:22;99491.22;;;6.98
43802;BMP280;29429;51.074;13.764;2023-12-20T06:31:49;99489.38;;;6.98
43802;BMP280;29429;51.074;13.764;2023-12-20T06:34:16;99485.53;;;7.01
43802;BMP280;29429;51.074;13.764;2023-12-20T06:36:43;99492.28;;;7.03
43802;BMP280;29429;51.074;13.764;2023-12-20T06:39:10;99502.16;;;7.09
43802;BMP280;29429;51.074;13.764;2023-12-20T06:41:39;99504.34;;;7.06
43802;BMP280;29429;51.074;13.764;2023-12-20T06:44:06;99501.84;;;7.04
43802;BMP280;29429;51.074;13.764;2023-12-20T06:46:39;99509.19;;;7.02
43802;BMP280;29429;51.074;13.764;2023-12-20T06:49:06;99514.50;;;7.02
43802;BMP280;29429;51.074;13.764;2023-12-20T06:51:33;99530.75;;;6.99
43802;BMP280;29429;51.074;13.764;2023-12-20T06:54:00;99522.38;;;6.96
43802;BMP280;29429;51.074;13.764;2023-12-20T06:56:29;99531.53;;;6.93
43802;BMP280;29429;51.074;13.764;2023-12-20T06:58:56;99533.53;;;6.91
43802;BMP280;29429;51.074;13.764;2023-12-20T07:01:23;99535.91;;;6.86
43802;BMP280;29429;51.074;13.764;2023-12-20T07:03:50;99523.69;;;6.85
43802;BMP280;29429;51.074;13.764;2023-12-20T07:06:17;99529.38;;;6.82
43802;BMP280;29429;51.074;13.764;2023-12-20T07:08:44;99524.44;;;6.79
43802;BMP280;29429;51.074;13.764;2023-12-20T07:11:11;99524.88;;;6.83
43802;BMP280;29429;51.074;13.764;2023-12-20T07:13:38;99536.69;;;6.80
43802;BMP280;29429;51.074;13.764;2023-12-20T07:16:05;99524.34;;;6.72
43802;BMP280;29429;51.074;13.764;2023-12-20T07:18:33;99530.03;;;6.69
43802;BMP280;29429;51.074;13.764;2023-12-20T07:21:00;99537.41;;;6.74
43802;BMP280;29429;51.074;13.764;2023-12-20T07:23:27;99536.13;;;6.70
43802;BMP280;29429;51.074;13.764;2023-12-20T07:25:54;99539.44;;;6.72
43802;BMP280;29429;51.074;13.764;2023-12-20T07:28:21;99546.63;;;6.78
43802;BMP280;29429;51.074;13.764;2023-12-20T07:30:48;99546.72;;;6.85
43802;BMP280;29429;51.074;13.764;2023-12-20T07:33:15;99542.03;;;6.87
43802;BMP280;29429;51.074;13.764;2023-12-20T07:35:42;99539.59;;;6.85
43802;BMP280;29429;51.074;13.764;2023-12-20T07:38:09;99540.03;;;6.89
43802;BMP280;29429;51.074;13.764;2023-12-20T07:40:36;99533.53;;;6.91
43802;BMP280;29429;51.074;13.764;2023-12-20T07:43:03;99527.03;;;6.94
43802;BMP280;29429;51.074;13.764;2023-12-20T07:45:30;99534.44;;;6.98
43802;BMP280;29429;51.074;13.764;2023-12-20T07:47:57;99529.13;;;6.98
43802;BMP280;29429;51.074;13.764;2023-12-20T07:50:25;99538.97;;;7.04
43802;BMP280;29429;51.074;13.764;2023-12-20T07:52:53;99529.66;;;7.08
43802;BMP280;29429;51.074;13.764;2023-12-20T07:55:20;99515.69;;;7.00
43802;BMP280;29429;51.074;13.764;2023-12-20T07:57:47;99515.53;;;7.01
43802;BMP280;29429;51.074;13.764;2023-12-20T08:00:18;99511.78;;;6.96
43802;BMP280;29429;51.074;13.764;2023-12-20T08:02:45;99511.69;;;6.89
43802;BMP280;29429;51.074;13.764;2023-12-20T08:05:12;99523.69;;;6.85
43802;BMP280;29429;51.074;13.764;2023-12-20T08:07:39;99529.72;;;6.79
43802;BMP280;29429;51.074;13.764;2023-12-20T08:10:06;99531.75;;;6.77
43802;BMP280;29429;51.074;13.764;2023-12-20T08:12:33;99527.66;;;6.74
43802;BMP280;29429;51.074;13.764;2023-12-20T08:15:02;99538.88;;;6.77
43802;BMP280;29429;51.074;13.764;2023-12-20T08:17:29;99524.06;;;6.82
43802;BMP280;29429;51.074;13.764;2023-12-20T08:19:56;99534.44;;;6.98
43802;BMP280;29429;51.074;13.764;2023-12-20T08:22:23;99537.03;;;7.13
43802;BMP280;29429;51.074;13.764;2023-12-20T08:24:50;99533.44;;;7.20
43802;BMP280;29429;51.074;13.764;2023-12-20T08:27:17;99532.53;;;7.28
43802;BMP280;29429;51.074;13.764;2023-12-20T08:29:44;99536.94;;;7.42
43802;BMP280;29429;51.074;13.764;2023-12-20T08:32:12;99534.97;;;7.51
43802;BMP280;29429;51.074;13.764;2023-12-20T08:34:39;99537.50;;;7.59
43802;BMP280;29429;51.074;13.764;2023-12-20T08:37:06;99540.66;;;7.69
43802;BMP280;29429;51.074;13.764;2023-12-20T08:39:33;99539.75;;;7.83
43802;BMP280;29429;51.074;13.764;2023-12-20T08:42:00;99532.88;;;7.95
43802;BMP280;29429;51.074;13.764;2023-12-20T08:44:27;99532.16;;;8.08
43802;BMP280;29429;51.074;13.764;2023-12-20T08:46:54;99541.19;;;8.13
43802;BMP280;29429;51.074;13.764;2023-12-20T08:49:23;99543.03;;;8.13
43802;BMP280;29429;51.074;13.764;2023-12-20T08:51:52;99543.91;;;8.20
43802;BMP280;29429;51.074;13.764;2023-12-20T08:54:19;99550.44;;;8.24
43802;BMP280;29429;51.074;13.764;2023-12-20T08:56:46;99553.63;;;8.34
43802;BMP280;29429;51.074;13.764;2023-12-20T08:59:14;99555.25;;;8.35
43802;BMP280;29429;51.074;13.764;2023-12-20T09:01:41;99548.88;;;8.29
43802;BMP280;29429;51.074;13.764;2023-12-20T09:04:08;99554.31;;;8.21
43802;BMP280;29429;51.074;13.764;2023-12-20T09:06:35;99542.16;;;8.06
43802;BMP280;29429;51.074;13.764;2023-12-20T09:09:01;99544.56;;;8.01
43802;BMP280;29429;51.074;13.764;2023-12-20T09:11:29;99538.88;;;8.04
43802;BMP280;29429;51.074;13.764;2023-12-20T09:13:56;99540.78;;;8.10
43802;BMP280;29429;51.074;13.764;2023-12-20T09:16:23;99532.69;;;8.24
43802;BMP280;29429;51.074;13.764;2023-12-20T09:18:51;99534.44;;;8.38
43802;BMP280;29429;51.074;13.764;2023-12-20T09:21:18;99519.19;;;8.53
43802;BMP280;29429;51.074;13.764;2023-12-20T09:23:45;99529.09;;;8.73
43802;BMP280;29429;51.074;13.764;2023-12-20T09:26:12;99524.38;;;8.75
43802;BMP280;29429;51.074;13.764;2023-12-20T09:28:39;99530.09;;;8.72
43802;BMP280;29429;51.074;13.764;2023-12-20T09:31:07;99526.66;;;8.78
43802;BMP280;29429;51.074;13.764;2023-12-20T09:33:34;99528.31;;;8.79
43802;BMP280;29429;51.074;13.764;2023-12-20T09:36:01;99512.94;;;8.74
43802;BMP280;29429;51.074;13.764;2023-12-20T09:38:29;99514.16;;;8.72
43802;BMP280;29429;51.074;13.764;2023-12-20T09:40:56;99510.66;;;8.65
43802;BMP280;29429;51.074;13.764;2023-12-20T09:43:24;99520.50;;;8.71
43802;BMP280;29429;51.074;13.764;2023-12-20T09:46:00;99517.25;;;8.82
43802;BMP280;29429;51.074;13.764;2023-12-20T09:48:30;99512.78;;;8.89
43802;BMP280;29429;51.074;13.764;2023-12-20T09:50:58;99507.13;;;9.05
43802;BMP280;29429;51.074;13.764;2023-12-20T09:53:26;99514.50;;;9.16
43802;BMP280;29429;51.074;13.764;2023-12-20T09:55:59;99500.59;;;9.27
43802;BMP280;29429;51.074;13.764;2023-12-20T09:58:29;99503.25;;;9.27
43802;BMP280;29429;51.074;13.764;2023-12-20T10:00:57;99493.25;;;9.29
43802;BMP280;29429;51.074;13.764;2023-12-20T10:03:25;99495.31;;;9.34
43802;BMP280;29429;51.074;13.764;2023-12-20T10:05:56;99485.66;;;9.33
43802;BMP280;29429;51.074;13.764;2023-12-20T10:08:24;99478.69;;;9.25
43802;BMP280;29429;51.074;13.764;2023-12-20T10:10:52;99479.31;;;9.21
43802;BMP280;29429;51.074;13.764;2023-12-20T10:13:19;99479.91;;;9.16
43802;BMP280;29429;51.074;13.764;2023-12-20T10:15:46;99468.03;;;9.12
43802;BMP280;29429;51.074;13.764;2023-12-20T10:18:15;99467.63;;;9.08
43802;BMP280;29429;51.074;13.764;2023-12-20T10:20:45;99476.03;;;9.18
43802;BMP280;29429;51.074;13.764;2023-12-20T10:23:12;99473.16;;;9.27
43802;BMP280;29429;51.074;13.764;2023-12-20T10:25:41;99469.31;;;9.29
43802;BMP280;29429;51.074;13.764;2023-12-20T10:28:16;99458.66;;;9.23
43802;BMP280;29429;51.074;13.764;2023-12-20T10:30:48;99473.38;;;9.12
43802;BMP280;29429;51.074;13.764;2023-12-20T10:33:24;99460.47;;;9.09
43802;BMP280;29429;51.074;13.764;2023-12-20T10:35:55;99453.72;;;9.06
43802;BMP280;29429;51.074;13.764;2023-12-20T10:38:22;99463.53;;;9.06
43802;BMP280;29429;51.074;13.764;2023-12-20T10:40:54;99451.66;;;9.02
43802;BMP280;29429;51.074;13.764;2023-12-20T10:43:24;99447.16;;;9.09
43802;BMP280;29429;51.074;13.764;2023-12-20T10:45:53;99445.09;;;9.11
43802;BMP280;29429;51.074;13.764;2023-12-20T10:48:22;99443.28;;;9.11
43802;BMP280;29429;51.074;13.764;2023-12-20T10:50:55;99426.50;;;9.04
43802;BMP280;29429;51.074;13.764;2023-12-20T10:53:24;99424.25;;;9.08
43802;BMP280;29429;51.074;13.764;2023-12-20T10:55:55;99421.81;;;9.13
43802;BMP280;29429;51.074;13.764;2023-12-20T10:58:27;99421.38;;;9.09
43802;BMP280;29429;51.074;13.764;2023-12-20T11:01:01;99418.53;;;9.04
43802;BMP280;29429;51.074;13.764;2023-12-20T11:03:35;99425.47;;;9.05
43802;BMP280;29429;51.074;13.764;2023-12-20T11:06:19;99425.06;;;9.02
43802;BMP280;29429;51.074;13.764;2023-12-20T11:14:31;99419.56;;;9.36
43802;BMP280;29429;51.074;13.764;2023-12-20T11:17:11;99419.97;;;9.46
43802;BMP280;29429;51.074;13.764;2023-12-20T11:20:05;99405.41;;;9.49
43802;BMP280;29429;51.074;13.764;2023-12-20T11:22:33;99403.38;;;9.51
43802;BMP280;29429;51.074;13.764;2023-12-20T11:25:11;99405.63;;;9.54
43802;BMP280;29429;51.074;13.764;2023-12-20T11:27:42;99409.09;;;9.54
43802;BMP280;29429;51.074;13.764;2023-12-20T11:30:14;99407.91;;;9.50
43802;BMP280;29429;51.074;13.764;2023-12-20T11:32:41;99423.03;;;9.43
43802;BMP280;29429;51.074;13.764;2023-12-20T11:37:38;99411.97;;;9.33
43802;BMP280;29429;51.074;13.764;2023-12-20T11:40:17;99406.66;;;9.33
43802;BMP280;29429;51.074;13.764;2023-12-20T11:42:50;99397.44;;;9.36
43802;BMP280;29429;51.074;13.764;2023-12-20T11:45:24;99399.47;;;9.40
43802;BMP280;29429;51.074;13.764;2023-12-20T11:47:56;99404.19;;;9.38
43802;BMP280;29429;51.074;13.764;2023-12-20T11:50:30;99395.22;;;9.26
43802;BMP280;29429;51.074;13.764;2023-12-20T11:52:58;99387.00;;;9.14
43802;BMP280;29429;51.074;13.764;2023-12-20T11:55:25;99384.13;;;9.03
43802;BMP280;29429;51.074;13.764;2023-12-20T11:57:52;99382.09;;;8.98
43802;BMP280;29429;51.074;13.764;2023-12-20T12:00:20;99370.03;;;8.89
43802;BMP280;29429;51.074;13.764;2023-12-20T12:03:00;99365.69;;;8.82
43802;BMP280;29429;51.074;13.764;2023-12-20T12:05:54;99359.16;;;8.78
43802;BMP280;29429;51.074;13.764;2023-12-20T12:08:32;99366.75;;;8.81
43802;BMP280;29429;51.074;13.764;2023-12-20T12:11:00;99357.13;;;8.80
43802;BMP280;29429;51.074;13.764;2023-12-20T12:13:27;99349.75;;;8.82
43802;BMP280;29429;51.074;13.764;2023-12-20T12:15:55;99365.94;;;8.87
43802;BMP280;29429;51.074;13.764;2023-12-20T12:18:22;99342.00;;;8.87
43802;BMP280;29429;51.074;13.764;2023-12-20T12:20:49;99354.66;;;8.98
43802;BMP280;29429;51.074;13.764;2023-12-20T12:23:23;99341.56;;;8.90
43802;BMP280;29429;51.074;13.764;2023-12-20T12:25:51;99336.91;;;8.92
43802;BMP280;29429;51.074;13.764;2023-12-20T12:28:18;99332.38;;;8.92
43802;BMP280;29429;51.074;13.764;2023-12-20T12:30:57;99343.03;;;8.99
43802;BMP280;29429;51.074;13.764;2023-12-20T12:33:26;99312.75;;;9.00
43802;BMP280;29429;51.074;13.764;2023-12-20T12:35:54;99323.97;;;9.08
43802;BMP280;29429;51.074;13.764;2023-12-20T12:38:22;99309.88;;;9.21
43802;BMP280;29429;51.074;13.764;2023-12-20T12:40:50;99317.19;;;9.32
43802;BMP280;29429;51.074;13.764;2023-12-20T12:43:17;99319.84;;;9.52
43802;BMP280;29429;51.074;13.764;2023-12-20T12:45:44;99307.50;;;9.64
43802;BMP280;29429;51.074;13.764;2023-12-20T12:48:11;99319.34;;;9.74
43802;BMP280;29429;51.074;13.764;2023-12-20T12:50:39;99302.94;;;9.84
43802;BMP280;29429;51.074;13.764;2023-12-20T12:53:05;99302.28;;;9.95
43802;BMP280;29429;51.074;13.764;2023-12-20T12:55:35;99300.22;;;9.97
43802;BMP280;29429;51.074;13.764;2023-12-20T12:58:03;99301.84;;;9.98
43802;BMP280;29429;51.074;13.764;2023-12-20T13:00:30;99293.84;;;9.98
43802;BMP280;29429;51.074;13.764;2023-12-20T13:02:57;99293.06;;;9.98
43802;BMP280;29429;51.074;13.764;2023-12-20T13:05:24;99289.94;;;10.01
43802;BMP280;29429;51.074;13.764;2023-12-20T13:07:51;99298.56;;;10.03
43802;BMP280;29429;51.074;13.764;2023-12-20T13:10:18;99288.53;;;9.98
43802;BMP280;29429;51.074;13.764;2023-12-20T13:12:45;99277.91;;;9.92
43802;BMP280;29429;51.074;13.764;2023-12-20T13:15:13;99281.19;;;9.94
43802;BMP280;29429;51.074;13.764;2023-12-20T13:17:40;99275.00;;;10.00
43802;BMP280;29429;51.074;13.764;2023-12-20T13:20:07;99270.94;;;9.97
43802;BMP280;29429;51.074;13.764;2023-12-20T13:22:35;99261.09;;;9.98
43802;BMP280;29429;51.074;13.764;2023-12-20T13:25:03;99276.25;;;9.97
43802;BMP280;29429;51.074;13.764;2023-12-20T13:27:30;99268.91;;;9.93
43802;BMP280;29429;51.074;13.764;2023-12-20T13:29:58;99268.03;;;9.99
43802;BMP280;29429;51.074;13.764;2023-12-20T13:32:25;99268.28;;;9.91
43802;BMP280;29429;51.074;13.764;2023-12-20T13:34:52;99268.94;;;9.79
43802;BMP280;29429;51.074;13.764;2023-12-20T13:37:19;99258.13;;;9.74
43802;BMP280;29429;51.074;13.764;2023-12-20T13:39:48;99258.13;;;9.74
43802;BMP280;29429;51.074;13.764;2023-12-20T13:42:15;99256.09;;;9.76
43802;BMP280;29429;51.074;13.764;2023-12-20T13:44:42;99257.28;;;9.80
43802;BMP280;29429;51.074;13.764;2023-12-20T13:47:09;99249.69;;;9.84
43802;BMP280;29429;51.074;13.764;2023-12-20T13:49:36;99241.09;;;9.82
43802;BMP280;29429;51.074;13.764;2023-12-20T13:52:03;99242.75;;;9.76
43802;BMP280;29429;51.074;13.764;2023-12-20T13:54:31;99233.13;;;9.75
43802;BMP280;29429;51.074;13.764;2023-12-20T13:56:58;99233.59;;;9.59
43802;BMP280;29429;51.074;13.764;2023-12-20T13:59:38;99235.06;;;9.55
43802;BMP280;29429;51.074;13.764;2023-12-20T14:02:05;99235.88;;;9.56
43802;BMP280;29429;51.074;13.764;2023-12-20T14:04:32;99234.63;;;9.58
43802;BMP280;29429;51.074;13.764;2023-12-20T14:07:10;99228.50;;;9.58
43802;BMP280;29429;51.074;13.764;2023-12-20T14:09:40;99223.78;;;9.53
43802;BMP280;29429;51.074;13.764;2023-12-20T14:12:13;99230.78;;;9.48
43802;BMP280;29429;51.074;13.764;2023-12-20T14:14:40;99222.22;;;9.39
43802;BMP280;29429;51.074;13.764;2023-12-20T14:17:07;99228.56;;;9.38
43802;BMP280;29429;51.074;13.764;2023-12-20T14:19:34;99221.22;;;9.27
43802;BMP280;29429;51.074;13.764;2023-12-20T14:22:01;99225.75;;;9.20